createdAt,value
2023-02-14T00:02:51.998Z,1.30
2023-02-14T00:06:53.941Z,0.60
2023-02-14T00:10:55.901Z,0.80
2023-02-14T00:15:16.176Z,1.20
2023-02-14T00:19:19.878Z,1.40
2023-02-14T00:23:21.775Z,1.40
2023-02-14T00:27:23.676Z,1.10
2023-02-14T00:31:25.824Z,1.00
2023-02-14T00:35:27.794Z,1.20
2023-02-14T00:39:29.891Z,1.30
2023-02-14T00:43:32.168Z,1.50
2023-02-14T00:47:34.182Z,1.00
2023-02-14T00:51:36.169Z,0.80
2023-02-14T00:55:38.284Z,1.00
2023-02-14T00:59:40.226Z,1.00
2023-02-14T01:03:42.248Z,1.10
2023-02-14T01:07:44.351Z,1.30
2023-02-14T01:11:46.443Z,1.50
2023-02-14T01:15:51.641Z,1.60
2023-02-14T01:19:54.192Z,1.60
2023-02-14T01:23:58.598Z,1.50
2023-02-14T01:28:00.537Z,1.50
2023-02-14T01:32:02.661Z,1.40
2023-02-14T01:36:05.142Z,1.40
2023-02-14T01:40:09.475Z,1.30
2023-02-14T01:44:14.462Z,1.30
2023-02-14T01:48:18.922Z,1.30
2023-02-14T01:52:34.997Z,1.40
2023-02-14T01:56:47.609Z,0.90
2023-02-14T02:01:00.143Z,0.10
2023-02-14T02:05:02.318Z,-0.10
2023-02-14T02:09:29.047Z,0.40
2023-02-14T02:13:31.129Z,0.20
2023-02-14T02:17:59.254Z,0.30
2023-02-14T02:22:28.272Z,0.10
2023-02-14T02:26:47.271Z,0.20
2023-02-14T02:31:08.154Z,0.50
2023-02-14T02:35:10.106Z,0.70
2023-02-14T02:39:44.588Z,0.60
2023-02-14T02:44:10.980Z,0.30
2023-02-14T02:48:21.938Z,0.30
2023-02-14T02:53:01.367Z,0.50
2023-02-14T02:57:08.031Z,0.60
2023-02-14T03:01:14.325Z,0.70
2023-02-14T03:05:16.843Z,0.50
2023-02-14T03:09:27.988Z,0.40
2023-02-14T03:13:48.340Z,0.00
2023-02-14T03:18:53.953Z,-0.20
2023-02-14T03:23:02.689Z,-0.30
2023-02-14T03:27:25.885Z,-0.40
2023-02-14T03:31:38.172Z,0.20
2023-02-14T03:36:17.372Z,0.20
2023-02-14T03:40:28.500Z,0.40
2023-02-14T03:44:33.618Z,0.50
2023-02-14T03:48:37.045Z,0.60
2023-02-14T03:52:40.160Z,0.50
2023-02-14T03:56:50.185Z,0.60
2023-02-14T04:00:59.235Z,0.60
2023-02-14T04:05:05.242Z,0.80
2023-02-14T04:09:07.224Z,0.90
2023-02-14T04:13:09.135Z,0.70
2023-02-14T04:17:29.417Z,0.30
2023-02-14T04:21:31.322Z,0.20
2023-02-14T04:25:33.327Z,0.40
2023-02-14T04:29:35.837Z,0.00
2023-02-14T04:33:39.282Z,-0.10
2023-02-14T04:37:41.735Z,0.00
2023-02-14T04:41:43.678Z,0.20
2023-02-14T04:45:46.695Z,0.00
2023-02-14T04:49:48.586Z,0.10
2023-02-14T04:53:50.481Z,0.00
2023-02-14T04:57:52.387Z,-0.30
2023-02-14T05:01:54.421Z,-0.40
2023-02-14T05:05:56.472Z,-0.70
2023-02-14T05:09:58.442Z,-1.20
2023-02-14T05:14:00.431Z,-0.20
2023-02-14T05:18:02.896Z,0.20
2023-02-14T05:22:04.826Z,-0.40
2023-02-14T05:26:07.164Z,-0.70
2023-02-14T05:30:10.026Z,-0.50
2023-02-14T05:34:12.420Z,-0.60
2023-02-14T05:38:14.318Z,-0.40
2023-02-14T05:42:16.385Z,-0.30
2023-02-14T05:46:18.297Z,-0.20
2023-02-14T05:50:20.712Z,-0.10
2023-02-14T05:54:22.636Z,0.30
2023-02-14T05:58:24.705Z,0.60
2023-02-14T06:02:26.704Z,0.20
2023-02-14T06:06:28.690Z,0.00
2023-02-14T06:10:31.110Z,-0.20
2023-02-14T06:14:33.148Z,-0.10
2023-02-14T06:18:35.095Z,-0.10
2023-02-14T06:22:38.191Z,-1.30
2023-02-14T06:26:40.222Z,-0.70
2023-02-14T06:30:42.325Z,-0.10
2023-02-14T06:34:45.676Z,0.30
2023-02-14T06:38:48.102Z,0.00
2023-02-14T06:42:50.047Z,-0.10
2023-02-14T06:46:52.006Z,-0.40
2023-02-14T06:50:54.400Z,-0.70
2023-02-14T06:54:56.358Z,-1.40
2023-02-14T06:58:58.344Z,-0.50
2023-02-14T07:03:00.386Z,-0.30
2023-02-14T07:07:02.466Z,-0.20
2023-02-14T07:11:04.583Z,-0.10
2023-02-14T07:15:08.296Z,-0.60
2023-02-14T07:19:10.306Z,-0.30
2023-02-14T07:23:13.809Z,-0.60
2023-02-14T07:27:15.841Z,-0.20
2023-02-14T07:31:18.600Z,0.30
2023-02-14T07:35:20.614Z,0.20
2023-02-14T07:39:22.549Z,0.40
2023-02-14T07:43:24.445Z,0.30
2023-02-14T07:47:26.401Z,0.60
2023-02-14T07:51:28.360Z,0.60
2023-02-14T07:55:30.328Z,0.80
2023-02-14T07:59:32.283Z,0.80
2023-02-14T08:03:34.473Z,0.60
2023-02-14T08:07:36.467Z,0.70
2023-02-14T08:11:56.826Z,0.50
2023-02-14T08:16:04.471Z,0.80
2023-02-14T08:20:07.719Z,0.90
2023-02-14T08:24:09.647Z,1.10
2023-02-14T08:28:13.255Z,1.00
2023-02-14T08:32:15.969Z,1.20
2023-02-14T08:36:18.094Z,1.00
2023-02-14T08:40:20.517Z,0.50
2023-02-14T08:44:22.511Z,0.40
2023-02-14T08:48:26.811Z,0.80
2023-02-14T08:52:28.841Z,1.00
2023-02-14T08:56:30.870Z,1.20
2023-02-14T09:00:33.688Z,1.20
2023-02-14T09:04:36.139Z,1.10
2023-02-14T09:08:39.478Z,1.40
2023-02-14T09:12:45.157Z,1.30
2023-02-14T09:16:47.292Z,1.40
2023-02-14T09:20:49.247Z,1.40
2023-02-14T09:24:51.231Z,1.50
2023-02-14T09:28:53.231Z,1.00
2023-02-14T09:32:55.160Z,0.30
2023-02-14T09:37:15.460Z,0.30
2023-02-14T09:41:56.067Z,0.40
2023-02-14T09:45:59.740Z,0.20
2023-02-14T09:50:05.909Z,0.80
2023-02-14T09:54:14.322Z,1.30
2023-02-14T09:58:23.108Z,1.60
2023-02-14T10:02:42.597Z,1.70
2023-02-14T10:06:59.571Z,1.80
2023-02-14T10:11:09.096Z,1.80
2023-02-14T10:15:31.266Z,1.40
2023-02-14T10:19:40.870Z,1.50
2023-02-14T10:23:54.026Z,1.70
2023-02-14T10:27:58.741Z,2.00
2023-02-14T10:32:02.856Z,2.00
2023-02-14T10:36:14.012Z,1.60
2023-02-14T10:40:33.455Z,1.00
2023-02-14T10:44:54.988Z,0.70
2023-02-14T10:48:59.997Z,0.60
2023-02-14T10:53:41.862Z,1.20
2023-02-14T10:57:50.120Z,1.70
2023-02-14T11:01:53.887Z,1.00
2023-02-14T11:05:56.455Z,1.50
2023-02-14T11:09:58.420Z,1.80
2023-02-14T11:14:18.322Z,1.40
2023-02-14T11:18:31.830Z,1.00
2023-02-14T11:22:34.905Z,1.10
2023-02-14T11:26:37.173Z,1.30
2023-02-14T11:30:41.618Z,2.10
2023-02-14T11:34:54.598Z,2.40
2023-02-14T11:39:21.834Z,1.90
2023-02-14T11:43:44.297Z,1.80
2023-02-14T11:47:46.293Z,1.60
2023-02-14T11:51:48.893Z,1.70
2023-02-14T11:55:56.476Z,2.00
2023-02-14T12:00:00.215Z,2.50
2023-02-14T12:04:32.797Z,2.70
2023-02-14T12:08:41.982Z,2.70
2023-02-14T12:13:00.641Z,2.60
2023-02-14T12:17:11.424Z,2.50
2023-02-14T12:21:36.653Z,2.60
2023-02-14T12:25:56.475Z,2.40
2023-02-14T12:30:36.903Z,2.10
2023-02-14T12:34:38.827Z,1.90
2023-02-14T12:39:17.737Z,1.90
2023-02-14T12:43:43.274Z,1.80
2023-02-14T12:47:50.954Z,2.20
2023-02-14T12:52:18.402Z,2.10
2023-02-14T12:56:44.592Z,2.30
2023-02-14T13:01:05.496Z,2.20
2023-02-14T13:05:22.224Z,1.90
2023-02-14T13:09:36.921Z,2.60
2023-02-14T13:13:54.168Z,2.80
2023-02-14T13:18:11.994Z,3.10
2023-02-14T13:22:19.381Z,2.30
2023-02-14T13:26:32.964Z,2.70
2023-02-14T13:30:37.193Z,2.50
2023-02-14T13:34:43.737Z,2.90
2023-02-14T13:38:52.765Z,3.00
2023-02-14T13:42:57.473Z,2.90
2023-02-14T13:46:59.437Z,2.90
2023-02-14T13:51:07.492Z,2.60
2023-02-14T13:55:20.288Z,2.90
2023-02-14T13:59:33.735Z,2.40
2023-02-14T14:03:45.602Z,2.30
2023-02-14T14:07:47.415Z,2.20
2023-02-14T14:11:50.860Z,1.80
2023-02-14T14:16:23.573Z,2.10
2023-02-14T14:20:29.285Z,1.60
2023-02-14T14:24:35.652Z,2.40
2023-02-14T14:28:37.926Z,2.50
2023-02-14T14:32:40.055Z,2.10
2023-02-14T14:36:43.963Z,1.90
2023-02-14T14:40:48.472Z,2.30
2023-02-14T14:44:56.433Z,2.40
2023-02-14T14:48:58.847Z,2.50
2023-02-14T14:53:09.476Z,2.90
2023-02-14T14:57:17.841Z,3.00
2023-02-14T15:01:40.244Z,2.10
2023-02-14T15:05:48.578Z,2.50
2023-02-14T15:09:51.282Z,2.90
2023-02-14T15:13:58.288Z,2.30
2023-02-14T15:18:04.233Z,2.50
2023-02-14T15:22:34.338Z,2.50
2023-02-14T15:26:36.568Z,2.50
2023-02-14T15:30:39.900Z,2.60
2023-02-14T15:34:42.022Z,2.40
2023-02-14T15:38:43.935Z,1.30
2023-02-14T15:42:46.106Z,1.50
2023-02-14T15:46:49.420Z,2.00
2023-02-14T15:50:54.955Z,2.40
2023-02-14T15:54:56.990Z,2.60
2023-02-14T15:59:11.305Z,2.30
2023-02-14T16:03:30.917Z,2.20
2023-02-14T16:07:33.337Z,2.10
2023-02-14T16:11:38.745Z,2.20
2023-02-14T16:15:56.811Z,2.10
2023-02-14T16:19:59.539Z,2.10
2023-02-14T16:24:07.635Z,2.20
2023-02-14T16:28:09.589Z,1.80
2023-02-14T16:32:17.922Z,2.00
2023-02-14T16:36:26.111Z,1.40
2023-02-14T16:40:28.884Z,1.40
2023-02-14T16:44:31.170Z,1.70
2023-02-14T16:48:33.096Z,2.10
2023-02-14T16:52:35.809Z,2.10
2023-02-14T16:56:52.741Z,1.70
2023-02-14T17:00:54.782Z,1.20
2023-02-14T17:04:56.857Z,1.00
2023-02-14T17:09:01.277Z,0.70
2023-02-14T17:13:04.461Z,1.50
2023-02-14T17:17:06.808Z,1.70
2023-02-14T17:21:09.473Z,1.30
2023-02-14T17:25:11.521Z,1.50
2023-02-14T17:29:13.481Z,1.50
2023-02-14T17:33:15.561Z,1.60
2023-02-14T17:37:19.377Z,1.50
2023-02-14T17:41:26.238Z,1.60
2023-02-14T17:45:28.263Z,1.40
2023-02-14T17:49:30.319Z,1.30
2023-02-14T17:53:34.006Z,1.20
2023-02-14T17:57:36.864Z,1.40
2023-02-14T18:01:38.998Z,1.50
2023-02-14T18:05:41.070Z,1.20
2023-02-14T18:09:43.191Z,0.80
2023-02-14T18:13:45.186Z,0.60
2023-02-14T18:17:51.037Z,0.50
2023-02-14T18:21:53.483Z,0.60
2023-02-14T18:25:57.880Z,0.80
2023-02-14T18:30:00.046Z,1.10
2023-02-14T18:34:02.657Z,1.10
2023-02-14T18:38:05.838Z,1.40
2023-02-14T18:42:07.826Z,1.70
2023-02-14T18:46:21.589Z,1.60
2023-02-14T18:50:23.530Z,1.70
2023-02-14T18:54:25.563Z,1.80
2023-02-14T18:58:27.521Z,1.80
2023-02-14T19:02:29.500Z,0.90
2023-02-14T19:06:32.359Z,0.60
2023-02-14T19:10:37.905Z,0.30
2023-02-14T19:14:39.892Z,0.50
2023-02-14T19:18:42.414Z,1.00
2023-02-14T19:22:44.381Z,1.40
2023-02-14T19:26:46.775Z,1.60
2023-02-14T19:30:49.179Z,1.20
2023-02-14T19:34:51.407Z,0.70
2023-02-14T19:38:54.320Z,0.70
2023-02-14T19:42:56.321Z,0.90
2023-02-14T19:47:07.730Z,1.00
2023-02-14T19:51:34.551Z,1.00
2023-02-14T19:55:36.629Z,0.90
2023-02-14T19:59:38.599Z,0.80
2023-02-14T20:03:40.505Z,1.00
2023-02-14T20:07:43.438Z,1.00
2023-02-14T20:11:51.748Z,1.20
2023-02-14T20:15:53.698Z,0.60
2023-02-14T20:19:55.918Z,0.80
2023-02-14T20:24:00.815Z,0.60
2023-02-14T20:28:02.882Z,0.40
2023-02-14T20:32:05.362Z,0.10
2023-02-14T20:36:08.136Z,0.70
2023-02-14T20:40:12.313Z,0.90
2023-02-14T20:44:17.041Z,1.10
2023-02-14T20:48:19.000Z,1.40
2023-02-14T20:52:21.438Z,1.40
2023-02-14T20:56:24.329Z,1.40
2023-02-14T21:00:27.844Z,1.40
2023-02-14T21:04:30.623Z,0.90
2023-02-14T21:08:33.427Z,0.90
2023-02-14T21:12:35.415Z,0.60
2023-02-14T21:16:37.475Z,0.90
2023-02-14T21:20:39.625Z,0.50
2023-02-14T21:24:41.694Z,0.50
2023-02-14T21:28:44.294Z,0.80
2023-02-14T21:32:46.218Z,1.00
2023-02-14T21:36:48.190Z,1.00
2023-02-14T21:40:50.141Z,1.00
2023-02-14T21:45:10.681Z,1.00
2023-02-14T21:49:31.543Z,1.00
2023-02-14T21:53:33.659Z,1.00
2023-02-14T21:57:35.618Z,1.00
2023-02-14T22:01:40.071Z,1.00
2023-02-14T22:05:42.160Z,1.00
2023-02-14T22:09:44.105Z,1.10
2023-02-14T22:13:46.107Z,1.10
2023-02-14T22:17:48.093Z,1.10
2023-02-14T22:21:50.061Z,0.80
2023-02-14T22:25:51.973Z,0.30
2023-02-14T22:29:53.929Z,0.20
2023-02-14T22:33:56.194Z,0.10
2023-02-14T22:37:58.145Z,0.30
2023-02-14T22:42:02.355Z,0.20
2023-02-14T22:46:09.857Z,0.50
2023-02-14T22:50:11.952Z,0.90
2023-02-14T22:54:15.838Z,1.00
2023-02-14T22:58:17.754Z,1.00
2023-02-14T23:02:19.718Z,0.70
2023-02-14T23:06:22.475Z,0.10
2023-02-14T23:10:24.473Z,0.10
2023-02-14T23:14:44.941Z,-0.40
2023-02-14T23:19:05.178Z,-0.10
2023-02-14T23:23:07.109Z,0.50
2023-02-14T23:27:09.921Z,0.80
2023-02-14T23:31:11.976Z,1.00
2023-02-14T23:35:14.429Z,1.10
2023-02-14T23:39:16.422Z,1.10
2023-02-14T23:43:18.438Z,1.00
2023-02-14T23:47:20.416Z,1.00
2023-02-14T23:51:23.022Z,0.90
2023-02-14T23:55:24.968Z,0.70
2023-02-14T23:59:27.206Z,0.70
